Time;durP1;ratioP1;P1;durP2;ratioP2;P2;SDS_P1;SDS_P2;PMS_P1;PMS_P2;Temp;Humidity;BMP_temperature;BMP_pressure;BME280_temperature;BME280_humidity;BME280_pressure;Samples;Min_cycle;Max_cycle;Signal;HPM_P1;HPM_P2
2020/12/16 00:01:28;;;;;;;49.83;32.80;;;;;;;8.11;92.27;100362.16;5044753;28;20529;-66
2020/12/16 00:03:54;;;;;;;54.20;33.77;;;;;;;8.05;92.25;100363.47;5061895;28;20449;-66
2020/12/16 00:06:20;;;;;;;49.37;33.90;;;;;;;7.97;92.46;100363.25;5064673;28;20919;-66
2020/12/16 00:08:46;;;;;;;51.57;31.73;;;;;;;8.00;92.83;100359.47;5064980;28;20456;-67
2020/12/16 00:11:13;;;;;;;49.30;33.37;;;;;;;8.06;92.29;100354.53;5064762;28;20504;-67
2020/12/16 00:13:39;;;;;;;49.40;32.53;;;;;;;7.92;92.39;100365.41;5061524;28;21033;-66
2020/12/16 00:16:08;;;;;;;51.20;34.10;;;;;;;7.77;93.00;100358.63;5043974;28;20465;-67
2020/12/16 00:18:35;;;;;;;55.40;34.37;;;;;;;7.86;92.98;100365.88;5062101;28;20490;-67
2020/12/16 00:21:01;;;;;;;55.20;34.80;;;;;;;7.86;92.57;100366.75;5064468;28;20502;-66
2020/12/16 00:23:27;;;;;;;55.37;33.23;;;;;;;7.89;92.39;100371.81;5064726;28;20460;-67
2020/12/16 00:25:53;;;;;;;50.23;33.40;;;;;;;7.69;92.61;100368.06;5063409;28;20997;-67
2020/12/16 00:28:19;;;;;;;52.67;33.33;;;;;;;7.78;92.88;100369.16;5065705;28;20422;-67
2020/12/16 00:30:47;;;;;;;51.27;34.13;;;;;;;7.66;93.21;100380.75;5063653;28;20499;-67
2020/12/16 00:33:14;;;;;;;54.37;34.10;;;;;;;7.58;93.58;100385.81;5065568;28;20480;-67
2020/12/16 00:35:41;;;;;;;49.37;31.60;;;;;;;7.61;94.03;100385.59;5063652;28;20504;-67
2020/12/16 00:38:07;;;;;;;51.00;32.40;;;;;;;7.56;93.94;100390.41;5065158;28;20552;-67
2020/12/16 00:40:33;;;;;;;46.57;30.30;;;;;;;7.53;94.18;100391.47;5064297;28;20521;-67
2020/12/16 00:42:59;;;;;;;47.00;31.27;;;;;;;7.49;94.35;100388.22;5064785;28;20513;-67
2020/12/16 00:45:25;;;;;;;52.80;34.80;;;;;;;7.69;93.16;100388.47;5062570;28;20473;-67
2020/12/16 00:47:51;;;;;;;52.60;34.50;;;;;;;7.69;93.11;100380.50;5065010;28;20501;-66
2020/12/16 00:50:17;;;;;;;53.97;32.50;;;;;;;7.68;93.02;100381.50;5063682;28;20533;-67
2020/12/16 00:52:44;;;;;;;52.10;32.20;;;;;;;7.68;92.78;100382.31;5065229;28;20484;-67
2020/12/16 00:55:10;;;;;;;55.47;32.77;;;;;;;7.76;92.05;100378.22;5062969;28;20480;-67
2020/12/16 00:57:37;;;;;;;53.83;33.03;;;;;;;7.67;92.46;100378.00;5065029;28;20503;-67
2020/12/16 01:00:06;;;;;;;49.27;30.13;;;;;;;7.49;92.71;100387.38;5064257;28;20535;-66
2020/12/16 01:02:33;;;;;;;53.30;33.00;;;;;;;7.37;92.89;100385.66;5063775;28;20497;-66
2020/12/16 01:04:59;;;;;;;51.27;32.73;;;;;;;7.34;93.23;100384.06;5064905;28;20472;-67
2020/12/16 01:07:25;;;;;;;56.73;32.23;;;;;;;7.36;93.55;100395.44;5063233;28;20483;-66
2020/12/16 01:09:52;;;;;;;57.37;35.80;;;;;;;7.61;92.59;100385.59;5064983;28;20456;-67
2020/12/16 01:12:18;;;;;;;48.37;32.90;;;;;;;7.52;92.84;100395.97;5062825;28;20511;-67
2020/12/16 01:14:44;;;;;;;55.07;31.60;;;;;;;7.59;92.56;100412.31;5064347;28;20449;-67
2020/12/16 01:17:11;;;;;;;55.70;31.53;;;;;;;7.64;92.20;100412.81;5063196;28;20574;-67
2020/12/16 01:19:37;;;;;;;51.13;30.73;;;;;;;7.50;92.38;100410.38;5064845;28;20488;-67
2020/12/16 01:22:03;;;;;;;56.40;33.87;;;;;;;7.38;93.17;100413.94;5063023;28;20572;-67
2020/12/16 01:24:29;;;;;;;49.83;30.87;;;;;;;7.46;92.83;100419.53;5063969;28;20528;-67
2020/12/16 01:26:56;;;;;;;50.70;33.40;;;;;;;7.40;92.77;100427.97;5080435;28;20554;-67
2020/12/16 01:29:22;;;;;;;50.83;31.40;;;;;;;7.42;92.84;100415.41;5084515;28;20528;-67
2020/12/16 01:31:49;;;;;;;48.13;31.57;;;;;;;7.45;92.58;100418.69;5082839;28;20483;-66
2020/12/16 01:34:19;;;;;;;46.43;30.17;;;;;;;7.32;92.61;100413.44;5084365;28;20458;-67
2020/12/16 01:36:46;;;;;;;48.13;30.03;;;;;;;7.28;92.80;100409.31;5083210;28;20527;-67
2020/12/16 01:39:12;;;;;;;54.33;32.77;;;;;;;7.24;93.20;100414.97;5084320;28;20533;-67
2020/12/16 01:41:39;;;;;;;51.80;32.40;;;;;;;7.07;93.38;100409.13;5083346;28;20598;-67
2020/12/16 01:44:15;;;;;;;52.87;30.07;;;;;;;7.03;93.64;100420.94;5084194;28;20459;-67
2020/12/16 01:46:48;;;;;;;45.93;30.97;;;;;;;7.02;93.91;100419.25;5082885;28;20542;-67
2020/12/16 01:49:14;;;;;;;49.37;30.37;;;;;;;6.98;94.05;100429.25;5084902;28;20501;-66
2020/12/16 01:51:43;;;;;;;50.53;31.63;;;;;;;7.05;94.15;100427.00;5083083;28;20499;-67
2020/12/16 01:54:10;;;;;;;44.37;30.50;;;;;;;7.01;93.72;100428.16;5084193;28;20440;-66
2020/12/16 01:56:38;;;;;;;50.40;29.23;;;;;;;6.96;94.21;100430.31;5083438;28;20476;-67
2020/12/16 01:59:06;;;;;;;46.13;28.90;;;;;;;6.88;93.86;100430.03;5084425;28;20476;-67
2020/12/16 02:01:33;;;;;;;44.17;29.03;;;;;;;6.88;94.10;100422.06;5082673;28;20514;-67
2020/12/16 02:04:01;;;;;;;51.50;30.90;;;;;;;6.69;94.30;100423.41;5084088;28;20470;-67
2020/12/16 02:06:30;;;;;;;52.23;31.03;;;;;;;6.64;94.68;100427.38;5082661;28;20491;-67
2020/12/16 02:09:03;;;;;;;48.37;29.00;;;;;;;6.53;94.27;100428.16;5084285;28;20447;-66
2020/12/16 02:11:29;;;;;;;57.13;32.07;;;;;;;6.40;94.55;100422.84;5083291;28;20493;-67
2020/12/16 02:13:56;;;;;;;57.83;30.23;;;;;;;6.43;94.86;100413.81;5083827;28;20448;-67
2020/12/16 02:16:22;;;;;;;55.43;30.93;;;;;;;6.31;94.67;100404.91;5082040;28;20491;-67
2020/12/16 02:18:51;;;;;;;59.40;30.50;;;;;;;6.15;94.54;100411.31;5084210;28;20523;-67
2020/12/16 02:21:18;;;;;;;57.20;32.10;;;;;;;6.19;95.20;100414.59;5083092;28;20510;-67
2020/12/16 02:23:46;;;;;;;61.63;34.00;;;;;;;6.33;95.08;100409.16;5083960;28;20467;-67
2020/12/16 02:26:14;;;;;;;71.67;34.43;;;;;;;6.17;95.19;100413.88;5081974;28;20487;-67
2020/12/16 02:28:40;;;;;;;64.33;35.80;;;;;;;6.17;95.78;100413.88;5083527;28;20436;-67
2020/12/16 02:31:07;;;;;;;72.80;34.90;;;;;;;6.09;96.13;100414.38;5082405;28;21186;-67
2020/12/16 02:33:33;;;;;;;75.53;34.90;;;;;;;6.00;96.06;100399.97;5083973;28;20455;-67
2020/12/16 02:35:59;;;;;;;83.20;36.20;;;;;;;5.95;96.05;100410.00;5085227;28;20840;-67
2020/12/16 02:38:26;;;;;;;69.73;33.57;;;;;;;5.89;96.34;100412.28;5087636;28;20555;-67
2020/12/16 02:40:52;;;;;;;68.77;33.27;;;;;;;5.93;95.94;100419.88;5086328;28;20491;-66
2020/12/16 02:43:19;;;;;;;58.90;32.20;;;;;;;5.82;95.97;100417.16;5087778;28;20446;-67
2020/12/16 02:45:45;;;;;;;75.13;34.50;;;;;;;5.93;95.85;100424.34;5079508;28;20491;-66
2020/12/16 02:48:13;;;;;;;83.07;38.50;;;;;;;5.94;95.86;100418.94;5088341;28;20515;-67
2020/12/16 02:50:40;;;;;;;76.67;35.20;;;;;;;5.85;96.23;100411.63;5085329;28;20619;-66
2020/12/16 02:53:06;;;;;;;94.60;40.10;;;;;;;5.82;96.17;100412.69;5087805;28;20672;-67
2020/12/16 02:55:32;;;;;;;105.10;40.30;;;;;;;5.78;96.29;100421.81;5084975;28;20507;-67
2020/12/16 02:57:58;;;;;;;82.57;38.63;;;;;;;5.69;96.30;100424.25;5087974;28;20478;-67
2020/12/16 03:00:25;;;;;;;98.40;40.40;;;;;;;5.58;96.07;100423.16;5084687;28;20484;-67
2020/12/16 03:02:51;;;;;;;94.73;38.87;;;;;;;5.40;96.29;100419.97;5087604;28;20456;-66
2020/12/16 03:05:17;;;;;;;87.37;37.67;;;;;;;5.30;96.14;100415.41;5084946;28;20467;-67
2020/12/16 03:07:44;;;;;;;90.60;37.03;;;;;;;5.16;96.19;100422.44;5087651;28;20502;-67
2020/12/16 03:10:10;;;;;;;79.07;36.43;;;;;;;5.10;96.18;100422.84;5085381;28;20509;-67
2020/12/16 03:12:37;;;;;;;98.93;36.20;;;;;;;5.03;96.26;100424.19;5087466;28;20452;-67
2020/12/16 03:15:03;;;;;;;97.10;37.17;;;;;;;4.95;96.17;100422.06;5085834;28;20483;-67
2020/12/16 03:17:30;;;;;;;91.03;36.30;;;;;;;5.01;96.42;100428.75;5086632;28;20464;-66
2020/12/16 03:19:56;;;;;;;104.30;36.13;;;;;;;4.87;96.45;100434.97;5086402;28;20519;-66
2020/12/16 03:22:22;;;;;;;110.33;38.90;;;;;;;4.77;96.59;100432.03;5085983;28;20464;-67
2020/12/16 03:24:48;;;;;;;129.27;46.80;;;;;;;4.99;96.36;100433.31;5085598;28;20452;-67
2020/12/16 03:27:14;;;;;;;150.80;49.10;;;;;;;4.94;96.58;100430.97;5085523;28;20504;-67
2020/12/16 03:29:40;;;;;;;104.97;38.87;;;;;;;5.00;96.43;100435.88;5085585;28;20512;-67
2020/12/16 03:32:07;;;;;;;91.97;38.17;;;;;;;4.93;96.29;100442.53;5085313;28;20495;-67
2020/12/16 03:34:34;;;;;;;93.13;38.73;;;;;;;4.81;96.35;100444.16;5085629;28;20456;-66
2020/12/16 03:37:00;;;;;;;79.63;35.17;;;;;;;4.75;96.46;100441.06;5085349;28;20491;-67
2020/12/16 03:39:26;;;;;;;78.30;34.63;;;;;;;4.73;96.53;100435.84;5086262;28;20547;-67
2020/12/16 03:41:52;;;;;;;80.73;34.00;;;;;;;4.62;96.33;100435.69;5065379;28;20473;-67
2020/12/16 03:44:18;;;;;;;81.80;34.83;;;;;;;4.58;96.03;100439.47;5075067;28;20475;-67
2020/12/16 03:46:44;;;;;;;67.03;30.77;;;;;;;4.47;96.10;100442.81;5082769;28;20544;-67
2020/12/16 03:49:10;;;;;;;68.43;30.57;;;;;;;4.42;96.36;100450.19;5086872;28;20471;-67
2020/12/16 03:51:37;;;;;;;62.87;30.90;;;;;;;4.41;96.35;100452.00;5085072;28;20471;-67
2020/12/16 03:54:04;;;;;;;68.50;31.67;;;;;;;4.48;96.16;100455.09;5086114;28;20487;-67
2020/12/16 03:56:30;;;;;;;71.77;30.23;;;;;;;4.57;96.25;100454.53;5084558;28;20495;-67
2020/12/16 03:58:56;;;;;;;79.17;33.30;;;;;;;4.46;96.09;100457.84;5085923;28;20515;-66
2020/12/16 04:01:22;;;;;;;83.73;34.70;;;;;;;4.61;96.17;100461.31;5084213;28;20817;-67
2020/12/16 04:03:48;;;;;;;64.43;30.97;;;;;;;4.50;96.08;100466.44;5086003;28;20978;-67
2020/12/16 04:06:15;;;;;;;69.33;32.50;;;;;;;4.53;96.24;100472.41;5084278;28;20506;-67
2020/12/16 04:08:42;;;;;;;83.40;36.00;;;;;;;4.43;96.39;100459.84;5086482;28;20484;-67
2020/12/16 04:11:10;;;;;;;75.03;32.70;;;;;;;4.36;96.04;100461.16;5084025;28;20995;-66
2020/12/16 04:13:37;;;;;;;59.53;30.40;;;;;;;4.30;96.44;100468.50;5084276;28;20567;-67
2020/12/16 04:16:03;;;;;;;51.97;28.17;;;;;;;4.16;96.40;100465.88;5075377;28;20472;-67
2020/12/16 04:18:29;;;;;;;32.13;19.20;;;;;;;3.93;95.91;100472.59;5085812;28;20472;-67
2020/12/16 04:20:55;;;;;;;27.50;15.83;;;;;;;3.93;93.86;100469.94;5084457;28;20644;-67
2020/12/16 04:23:22;;;;;;;19.80;14.40;;;;;;;3.65;94.31;100478.69;5085246;28;20816;-67
2020/12/16 04:25:49;;;;;;;28.20;15.17;;;;;;;3.50;93.96;100462.75;5075093;28;20524;-67
2020/12/16 04:28:15;;;;;;;31.53;14.23;;;;;;;3.25;94.28;100471.28;5065629;28;20903;-67
2020/12/16 04:30:41;;;;;;;24.90;14.63;;;;;;;3.36;94.31;100471.47;5063004;28;20496;-67
2020/12/16 04:33:07;;;;;;;75.47;17.63;;;;;;;3.35;94.55;100474.22;5065636;28;20464;-66
2020/12/16 04:35:33;;;;;;;44.53;16.93;;;;;;;3.36;94.64;100475.94;5063889;28;20507;-67
2020/12/16 04:37:59;;;;;;;65.37;17.50;;;;;;;3.16;95.00;100487.63;5065497;28;20444;-66
2020/12/16 04:40:25;;;;;;;115.10;21.57;;;;;;;3.09;95.22;100483.63;5063368;28;20505;-67
2020/12/16 04:43:05;;;;;;;276.20;26.40;;;;;;;3.12;95.18;100479.03;5064990;28;20457;-66
2020/12/16 04:45:32;;;;;;;79.23;17.37;;;;;;;3.14;95.57;100481.59;5062770;28;20488;-66
2020/12/16 04:47:58;;;;;;;23.70;15.13;;;;;;;3.16;95.57;100477.06;5065484;28;20468;-67
2020/12/16 04:50:25;;;;;;;68.80;18.20;;;;;;;3.18;95.91;100475.22;5063168;28;20488;-67
2020/12/16 04:52:52;;;;;;;43.97;16.70;;;;;;;3.16;96.06;100470.00;5065391;28;20504;-67
2020/12/16 04:55:19;;;;;;;36.13;14.70;;;;;;;3.24;95.87;100468.72;5063216;28;20448;-66
2020/12/16 04:57:49;;;;;;;68.90;16.27;;;;;;;3.16;95.69;100453.28;5064584;28;20457;-67
2020/12/16 05:00:16;;;;;;;87.33;19.33;;;;;;;2.97;96.00;100448.22;5062471;28;20492;-67
2020/12/16 05:02:52;;;;;;;37.83;16.57;;;;;;;3.18;95.66;100459.34;5065330;28;20449;-66
2020/12/16 05:05:18;;;;;;;34.13;18.90;;;;;;;3.12;95.65;100460.53;5056818;28;20493;-67
2020/12/16 05:07:48;;;;;;;54.27;25.73;;;;;;;3.24;95.73;100456.34;5062582;28;20472;-66
2020/12/16 05:10:14;;;;;;;73.50;31.60;;;;;;;3.32;95.56;100458.56;5061309;28;20933;-66
2020/12/16 05:12:41;;;;;;;37.40;21.10;;;;;;;3.39;95.83;100455.47;5064384;28;20446;-66
2020/12/16 05:15:22;;;;;;;27.23;17.63;;;;;;;3.22;94.69;100452.09;5060617;28;20544;-66
2020/12/16 05:18:10;;;;;;;45.03;14.67;;;;;;;2.85;94.61;100462.09;5064519;28;21163;-66
2020/12/16 05:20:37;;;;;;;94.23;17.50;;;;;;;2.70;95.11;100455.91;5061961;28;20529;-66
2020/12/16 05:23:04;;;;;;;64.27;14.47;;;;;;;2.72;95.69;100456.66;5063167;28;20512;-66
2020/12/16 05:25:31;;;;;;;393.63;30.67;;;;;;;2.93;96.41;100451.97;5068266;28;20547;-66
2020/12/16 05:27:57;;;;;;;448.23;33.43;;;;;;;3.12;97.06;100454.41;5074799;28;20449;-66
2020/12/16 05:30:25;;;;;;;227.10;26.00;;;;;;;3.18;97.13;100456.72;5044111;28;20569;-67
2020/12/16 05:32:51;;;;;;;104.30;18.83;;;;;;;3.09;96.90;100454.59;5058700;28;20452;-67
2020/12/16 05:35:23;;;;;;;140.93;20.33;;;;;;;2.99;96.89;100455.13;5062479;28;20473;-66
2020/12/16 05:37:49;;;;;;;192.20;21.97;;;;;;;2.94;96.57;100456.31;5063453;28;20480;-66
2020/12/16 05:40:20;;;;;;;86.80;18.13;;;;;;;2.97;96.76;100441.16;5061700;28;20564;-67
2020/12/16 05:42:47;;;;;;;66.57;17.10;;;;;;;2.88;96.74;100446.94;5064595;28;20700;-66
2020/12/16 05:45:14;;;;;;;58.50;15.93;;;;;;;2.87;96.61;100442.59;5050064;28;20465;-66
2020/12/16 05:47:47;;;;;;;44.00;15.97;;;;;;;2.80;96.05;100452.66;5044103;28;20454;-67
2020/12/16 05:50:17;;;;;;;90.03;17.40;;;;;;;2.87;96.23;100468.16;5051880;28;20456;-66
2020/12/16 05:52:45;;;;;;;86.00;16.70;;;;;;;2.89;95.70;100466.28;5063944;28;20567;-66
2020/12/16 05:55:11;;;;;;;84.47;18.47;;;;;;;2.81;95.65;100469.34;5061538;28;20465;-66
2020/12/16 05:57:37;;;;;;;42.97;15.73;;;;;;;2.76;95.31;100469.63;5064310;28;20433;-67
2020/12/16 06:00:08;;;;;;;100.70;18.27;;;;;;;2.68;95.90;100465.69;5061372;28;20539;-67
2020/12/16 06:02:37;;;;;;;49.13;16.87;;;;;;;2.59;95.81;100470.53;5076965;28;20475;-66
2020/12/16 06:05:05;;;;;;;123.10;16.93;;;;;;;2.67;95.74;100472.75;5069052;28;20959;-66
2020/12/16 06:07:32;;;;;;;81.60;18.57;;;;;;;2.61;95.90;100473.94;5061981;28;21012;-66
2020/12/16 06:09:59;;;;;;;99.50;19.97;;;;;;;2.62;96.08;100483.56;5066632;28;20453;-67
2020/12/16 06:12:29;;;;;;;219.43;27.00;;;;;;;2.64;96.25;100478.22;5065936;28;20491;-66
2020/12/16 06:15:05;;;;;;;82.53;18.97;;;;;;;2.71;96.50;100478.72;5066000;28;20452;-67
2020/12/16 06:17:36;;;;;;;106.50;18.97;;;;;;;2.72;96.27;100483.91;5065844;28;20580;-66
2020/12/16 06:20:04;;;;;;;42.60;16.60;;;;;;;2.57;96.59;100493.53;5067163;28;20512;-66
2020/12/16 06:22:33;;;;;;;99.50;19.63;;;;;;;2.64;96.23;100497.53;5065353;28;20476;-66
2020/12/16 06:24:59;;;;;;;60.77;16.53;;;;;;;2.66;96.11;100492.19;5066486;28;20484;-66
2020/12/16 06:27:28;;;;;;;113.37;20.70;;;;;;;2.65;95.90;100485.19;5052706;28;20964;-66
2020/12/16 06:29:58;;;;;;;80.87;17.40;;;;;;;2.65;96.04;100498.38;5059035;28;20469;-65
2020/12/16 06:32:29;;;;;;;50.67;17.20;;;;;;;2.78;96.03;100506.50;5066095;28;20479;-66
2020/12/16 06:34:58;;;;;;;64.07;17.57;;;;;;;2.76;95.81;100508.34;5066459;28;20484;-65
2020/12/16 06:37:25;;;;;;;60.83;16.90;;;;;;;2.75;95.76;100509.31;5065425;28;20508;-66
2020/12/16 06:39:51;;;;;;;49.53;16.97;;;;;;;2.75;95.98;100506.66;5066906;28;20572;-65
2020/12/16 06:42:32;;;;;;;43.07;16.90;;;;;;;2.81;95.52;100511.59;5064944;28;20500;-65
2020/12/16 06:45:13;;;;;;;90.93;17.70;;;;;;;2.72;95.66;100506.81;5065720;28;20456;-66
2020/12/16 06:47:39;;;;;;;109.77;20.10;;;;;;;2.65;95.55;100501.03;5043796;28;20512;-66
2020/12/16 06:50:22;;;;;;;41.43;18.13;;;;;;;2.63;96.14;100511.66;5049403;28;20448;-66
2020/12/16 06:52:49;;;;;;;65.93;16.83;;;;;;;2.65;96.00;100508.94;5066394;28;20464;-65
2020/12/16 06:55:16;;;;;;;71.33;18.00;;;;;;;2.81;96.30;100514.22;5076236;28;20595;-65
2020/12/16 06:57:46;;;;;;;102.63;19.50;;;;;;;2.70;96.50;100509.53;5086022;28;20464;-66
2020/12/16 07:00:18;;;;;;;40.67;17.07;;;;;;;2.79;96.50;100508.19;5066866;28;20994;-66
2020/12/16 07:02:44;;;;;;;71.10;21.83;;;;;;;2.88;96.24;100509.47;5065546;28;20476;-66
2020/12/16 07:05:36;;;;;;;78.07;20.50;;;;;;;2.75;96.62;100509.31;5062559;28;20500;-66
2020/12/16 07:08:03;;;;;;;50.13;19.90;;;;;;;2.78;96.55;100515.25;5065138;28;20496;-65
2020/12/16 07:10:46;;;;;;;113.77;22.33;;;;;;;2.80;96.55;100520.47;5064042;28;20499;-66
2020/12/16 07:13:24;;;;;;;162.40;26.80;;;;;;;2.89;96.86;100519.09;5065272;28;20475;-66
2020/12/16 07:15:55;;;;;;;92.60;22.53;;;;;;;2.99;96.66;100520.31;5063788;28;20488;-66
2020/12/16 07:18:32;;;;;;;49.57;20.73;;;;;;;3.05;96.70;100522.59;5066008;28;20425;-65
2020/12/16 07:21:21;;;;;;;69.77;24.33;;;;;;;3.00;96.08;100527.28;5043118;28;20469;-65
2020/12/16 07:23:52;;;;;;;58.40;22.73;;;;;;;3.10;96.93;100523.19;5047968;28;20849;-65
2020/12/16 07:26:20;;;;;;;88.27;24.33;;;;;;;3.16;96.21;100522.84;5077019;28;21184;-65
2020/12/16 07:28:46;;;;;;;78.80;24.20;;;;;;;3.12;96.26;100521.28;5084369;28;20437;-66
2020/12/16 07:31:13;;;;;;;80.03;23.60;;;;;;;3.12;96.47;100523.09;5084002;28;20475;-66
2020/12/16 07:33:39;;;;;;;123.43;25.77;;;;;;;3.05;96.63;100519.94;5086060;28;20462;-65
2020/12/16 07:36:06;;;;;;;99.17;24.00;;;;;;;3.09;97.07;100526.78;5083466;28;20503;-65
2020/12/16 07:38:32;;;;;;;179.50;26.50;;;;;;;3.12;97.08;100518.66;5085757;28;20446;-65
2020/12/16 07:40:59;;;;;;;116.20;25.57;;;;;;;3.17;97.15;100513.13;5083256;28;20456;-65
2020/12/16 07:43:26;;;;;;;139.97;28.50;;;;;;;3.17;97.39;100518.41;5084202;28;20452;-65
2020/12/16 07:46:04;;;;;;;44.63;22.97;;;;;;;3.23;97.88;100523.34;5082884;28;20474;-65
2020/12/16 07:48:30;;;;;;;105.40;28.70;;;;;;;3.22;97.88;100520.78;5083974;28;20444;-65
2020/12/16 07:51:05;;;;;;;123.27;29.23;;;;;;;3.30;97.89;100529.13;5083238;28;20460;-65
2020/12/16 07:53:32;;;;;;;174.93;29.47;;;;;;;3.29;98.03;100533.56;5085192;28;20452;-66
2020/12/16 07:56:00;;;;;;;96.17;28.53;;;;;;;3.35;97.72;100525.31;5082740;28;20464;-65
2020/12/16 07:58:27;;;;;;;87.63;29.23;;;;;;;3.49;97.93;100526.28;5084154;28;20471;-66
2020/12/16 08:01:05;;;;;;;153.77;31.30;;;;;;;3.55;97.89;100523.28;5082078;28;20476;-66
2020/12/16 08:03:33;;;;;;;80.27;29.50;;;;;;;3.60;97.94;100528.31;5085163;28;20941;-65
2020/12/16 08:05:59;;;;;;;123.13;32.50;;;;;;;3.65;97.72;100519.19;5068225;28;20495;-65
2020/12/16 08:08:25;;;;;;;76.40;29.03;;;;;;;3.69;97.88;100531.25;5084001;28;20448;-66
2020/12/16 08:10:52;;;;;;;249.33;40.53;;;;;;;3.58;97.70;100534.53;5082569;28;20479;-66
2020/12/16 08:13:23;;;;;;;135.27;36.17;;;;;;;3.65;97.43;100542.97;5083418;28;20444;-66
2020/12/16 08:15:50;;;;;;;137.93;30.90;;;;;;;3.73;97.59;100537.22;5078567;28;20488;-66
2020/12/16 08:18:17;;;;;;;293.67;38.40;;;;;;;3.88;97.60;100538.97;5083238;28;20432;-66
2020/12/16 08:20:43;;;;;;;110.60;30.83;;;;;;;3.94;97.68;100527.16;5082015;28;20468;-65
2020/12/16 08:23:12;;;;;;;288.13;39.87;;;;;;;3.93;97.57;100541.34;5084155;28;20437;-65
2020/12/16 08:25:38;;;;;;;150.07;32.27;;;;;;;3.99;97.50;100533.03;5081570;28;20495;-66
2020/12/16 08:28:05;;;;;;;62.13;28.50;;;;;;;4.26;97.33;100540.28;5067543;28;20434;-66
2020/12/16 08:30:33;;;;;;;93.90;28.47;;;;;;;4.20;97.22;100540.63;5078899;28;21026;-66
2020/12/16 08:33:01;;;;;;;191.03;36.63;;;;;;;4.11;97.12;100548.22;5083529;28;20436;-66
2020/12/16 08:35:30;;;;;;;136.43;31.43;;;;;;;4.13;97.29;100546.31;5080030;28;20528;-65
2020/12/16 08:38:01;;;;;;;135.07;34.40;;;;;;;4.08;96.97;100535.16;5083578;28;21087;-66
2020/12/16 08:40:29;;;;;;;96.13;30.93;;;;;;;4.08;96.90;100534.28;5081875;28;20984;-66
2020/12/16 08:42:55;;;;;;;153.73;34.63;;;;;;;4.13;96.81;100542.78;5083484;28;20436;-66
2020/12/16 08:45:22;;;;;;;63.20;29.87;;;;;;;4.32;97.15;100546.06;5080772;28;20447;-65
2020/12/16 08:47:49;;;;;;;126.00;34.20;;;;;;;4.48;96.64;100535.38;5084043;28;20429;-66
2020/12/16 08:50:17;;;;;;;252.07;37.27;;;;;;;4.34;96.70;100540.69;5081714;28;20447;-66
2020/12/16 08:52:45;;;;;;;114.37;31.10;;;;;;;4.48;96.85;100537.19;5083072;28;20440;-66
2020/12/16 08:55:16;;;;;;;240.37;37.80;;;;;;;4.57;96.79;100536.59;5081388;28;20440;-66
2020/12/16 08:57:55;;;;;;;74.90;30.60;;;;;;;4.69;96.82;100541.13;5081848;28;20443;-65
2020/12/16 09:00:27;;;;;;;66.10;29.33;;;;;;;4.90;96.48;100552.19;5078865;28;20483;-66
2020/12/16 09:03:06;;;;;;;60.80;30.27;;;;;;;5.12;95.99;100548.19;5077615;28;20440;-66
2020/12/16 09:05:34;;;;;;;72.57;31.27;;;;;;;5.23;96.57;100552.78;5076896;28;20557;-66
2020/12/16 09:08:08;;;;;;;62.60;32.67;;;;;;;5.42;96.38;100558.59;5099714;28;20440;-67
2020/12/16 09:10:36;;;;;;;60.30;31.33;;;;;;;5.43;95.75;100556.78;5084265;28;20473;-65
2020/12/16 09:13:13;;;;;;;54.73;30.60;;;;;;;5.49;95.52;100547.59;5082530;28;20448;-65
2020/12/16 09:15:42;;;;;;;59.93;32.37;;;;;;;5.92;94.75;100552.69;5095656;28;20492;-66
2020/12/16 09:18:10;;;;;;;59.67;33.57;;;;;;;6.72;93.37;100552.53;5096447;28;20519;-66
2020/12/16 09:20:37;;;;;;;60.10;34.73;;;;;;;7.79;89.78;100557.16;5088010;28;20531;-66
2020/12/16 09:23:04;;;;;;;54.73;33.00;;;;;;;8.37;84.56;100548.38;5083155;28;20437;-67
2020/12/16 09:25:31;;;;;;;43.30;26.17;;;;;;;9.27;84.05;100548.38;5080871;28;20486;-66
2020/12/16 09:27:58;;;;;;;37.20;26.83;;;;;;;10.24;80.28;100553.66;5082714;28;20448;-67
2020/12/16 09:30:29;;;;;;;30.83;23.40;;;;;;;11.34;74.64;100550.31;5093977;28;20490;-65
2020/12/16 09:32:55;;;;;;;28.73;18.83;;;;;;;12.18;69.89;100559.66;5083162;28;20460;-65
2020/12/16 09:35:24;;;;;;;21.00;16.90;;;;;;;12.75;66.62;100560.50;5085753;28;20984;-64
2020/12/16 09:37:51;;;;;;;23.37;16.60;;;;;;;12.81;65.72;100567.97;5092749;28;20467;-64
2020/12/16 09:40:17;;;;;;;20.00;15.90;;;;;;;13.04;64.75;100567.59;5087967;28;20471;-64
2020/12/16 09:42:58;;;;;;;17.70;15.63;;;;;;;12.24;64.99;100567.97;5098024;28;20475;-64
2020/12/16 09:45:24;;;;;;;21.67;17.73;;;;;;;11.83;69.09;100566.44;5068272;28;20832;-64
2020/12/16 09:47:52;;;;;;;24.90;17.80;;;;;;;12.31;66.98;100559.34;5069970;28;20454;-64
2020/12/16 09:50:26;;;;;;;20.63;16.13;;;;;;;12.59;65.74;100571.84;5085995;28;20443;-64
2020/12/16 09:52:57;;;;;;;19.40;16.60;;;;;;;13.36;64.86;100563.63;5085429;28;20531;-64
2020/12/16 09:55:24;;;;;;;21.20;17.67;;;;;;;14.67;60.82;100566.59;5084127;28;20448;-64
2020/12/16 09:58:03;;;;;;;22.67;16.90;;;;;;;14.20;61.05;100569.59;5086500;28;20432;-66
2020/12/16 10:00:30;;;;;;;20.03;15.70;;;;;;;14.30;60.57;100564.97;5084293;28;20531;-67
2020/12/16 10:03:00;;;;;;;22.53;17.30;;;;;;;14.30;60.36;100565.84;5087518;28;20444;-66
2020/12/16 10:05:28;;;;;;;17.77;15.87;;;;;;;14.86;60.09;100570.91;5085702;28;20531;-66
2020/12/16 10:07:55;;;;;;;19.33;16.83;;;;;;;14.79;59.97;100562.63;5092053;28;20432;-66
2020/12/16 10:10:22;;;;;;;19.27;16.77;;;;;;;13.13;63.79;100555.94;5092525;28;20458;-66
2020/12/16 10:12:49;;;;;;;20.40;16.57;;;;;;;12.37;66.84;100545.38;5099389;28;20928;-67
2020/12/16 10:15:16;;;;;;;18.93;16.33;;;;;;;10.98;71.33;100563.31;5084012;28;20444;-66
2020/12/16 10:17:43;;;;;;;17.93;15.97;;;;;;;10.78;73.08;100551.72;5085375;28;20451;-64
2020/12/16 10:20:11;;;;;;;19.73;15.43;;;;;;;10.65;74.06;100557.28;5073139;28;20496;-66
2020/12/16 10:22:41;;;;;;;20.40;16.83;;;;;;;10.33;76.59;100552.06;5086225;28;20440;-66
2020/12/16 10:25:08;;;;;;;23.20;17.57;;;;;;;9.70;79.12;100549.31;5083011;28;20486;-66
2020/12/16 10:27:35;;;;;;;13.17;10.73;;;;;;;9.45;78.17;100537.16;5085996;28;20447;-66
2020/12/16 10:30:04;;;;;;;16.77;13.23;;;;;;;9.03;81.56;100544.03;5074513;28;20488;-66
2020/12/16 10:32:31;;;;;;;13.27;11.83;;;;;;;9.28;81.71;100535.84;5076894;28;20469;-65
2020/12/16 10:34:57;;;;;;;13.67;10.67;;;;;;;8.91;82.09;100541.50;5072777;28;20825;-65
2020/12/16 10:37:25;;;;;;;12.67;10.13;;;;;;;8.74;81.83;100538.34;5083799;28;20476;-66
2020/12/16 10:39:53;;;;;;;13.67;10.90;;;;;;;8.81;81.11;100533.38;5081003;28;20479;-65
2020/12/16 10:42:22;;;;;;;12.53;9.63;;;;;;;9.13;81.84;100528.13;5085595;28;20484;-65
2020/12/16 10:44:48;;;;;;;14.03;10.70;;;;;;;9.47;79.13;100533.38;5075504;28;20448;-65
2020/12/16 10:47:15;;;;;;;11.03;8.90;;;;;;;9.88;79.35;100533.59;5081932;28;20503;-66
2020/12/16 10:49:42;;;;;;;10.63;9.53;;;;;;;10.36;76.52;100525.03;5087247;28;20496;-66
2020/12/16 10:52:11;;;;;;;11.97;9.70;;;;;;;10.72;73.67;100525.50;5085618;28;20535;-66
2020/12/16 10:54:38;;;;;;;12.63;9.97;;;;;;;11.34;72.59;100528.06;5087063;28;20511;-66
2020/12/16 10:57:05;;;;;;;9.93;8.90;;;;;;;11.17;74.20;100526.91;5084300;28;20486;-66
2020/12/16 10:59:32;;;;;;;9.40;7.70;;;;;;;11.48;71.44;100517.78;5082974;28;20479;-64
2020/12/16 11:01:59;;;;;;;10.10;9.10;;;;;;;11.51;69.48;100519.34;5085093;28;20464;-64
2020/12/16 11:04:27;;;;;;;12.20;9.87;;;;;;;11.17;71.73;100522.38;5087068;28;20444;-64
2020/12/16 11:06:54;;;;;;;11.27;9.33;;;;;;;10.79;74.10;100523.97;5085346;28;20485;-64
2020/12/16 11:09:20;;;;;;;11.30;8.73;;;;;;;10.92;73.40;100529.09;5079766;28;20467;-63
2020/12/16 11:11:49;;;;;;;10.50;8.53;;;;;;;10.74;74.80;100521.72;5085359;28;20472;-64
2020/12/16 11:14:16;;;;;;;8.57;6.70;;;;;;;11.63;69.23;100520.91;5085062;28;20444;-64
2020/12/16 11:16:42;;;;;;;9.93;7.40;;;;;;;10.99;71.55;100511.53;5084657;28;20567;-64
2020/12/16 11:19:10;;;;;;;10.17;8.47;;;;;;;10.28;74.82;100515.00;5086190;28;21048;-64